Latest Weather Observations for Griffith

IDN60801

Issued at 11:35 am EST Monday 22 September 2014 (issued every 30 minutes, with the page automatically refreshed every 10 minutes)

About weather observations | Map of weather stations | Latest weather observations for NSW | Other Formats
Station Details ID: 075041 Name: GRIFFITH AIRPORT AWS Lat: -34.25 Lon: 146.07 Height: 134.0 m
Data from the previous 72 hours. | See also: Recent months at Griffith
Date/Time
EST
Temp
°C
App
Temp
°C
Dew
Point
Rel
Hum
%
Delta-T
°C
Wind Press
QNH
hPa
Press
MSL
hPa
Rain
since 9 am
mm
Dir
 
Spd
km/h
Gust
km/h
Spd
kts
Gust
kts
22/11:30am 22.1 17.2 2.2 27 9.3 N 17 30 9 16 1028.8 1028.9 0.0
22/11:00am 21.6 17.0 1.8 27 9.2 NNE 15 22 8 12 1029.1 1029.2 0.0
22/10:30am 21.4 16.9 4.0 32 8.5 NNE 17 24 9 13 1029.4 1029.5 0.0
22/10:00am 20.6 17.1 5.4 37 7.5 ENE 13 22 7 12 1029.6 1029.7 0.0
22/09:30am 19.2 16.0 4.9 39 7.0 ENE 11 20 6 11 1029.8 1029.9 0.0
22/09:00am 17.6 13.7 5.5 45 5.9 ENE 15 19 8 10 1029.8 1029.9 0.0
22/08:30am 15.3 11.9 5.8 53 4.6 E 13 17 7 9 1029.7 1029.8 0.0
22/08:00am 12.7 8.4 5.1 60 3.5 E 17 20 9 11 1029.5 1029.6 0.0
22/07:30am 10.3 6.6 4.7 68 2.5 E 13 19 7 10 1029.4 1029.5 0.0
22/07:00am 8.0 3.8 3.8 75 1.8 ESE 15 20 8 11 1029.2 1029.3 0.0
22/06:30am 7.0 2.0 3.4 78 1.5 ESE 19 26 10 14 1028.9 1029.0 0.0
22/06:00am 6.2 3.4 3.0 80 1.3 E 7 9 4 5 1028.5 1028.6 0.0
22/05:30am 6.7 2.4 3.1 78 1.5 ESE 15 19 8 10 1028.1 1028.1 0.0
22/05:00am 7.1 2.8 3.0 75 1.7 ESE 15 19 8 10 1027.7 1027.7 0.0
22/04:30am 7.2 3.2 2.9 74 1.8 ESE 13 19 7 10 1027.4 1027.4 0.0
22/04:00am 8.0 2.9 3.1 71 2.1 ESE 19 20 10 11 1027.2 1027.2 0.0
22/03:30am 7.9 3.5 2.8 70 2.2 ESE 15 19 8 10 1027.0 1027.0 0.0
22/03:00am 7.8 4.1 2.1 67 2.4 ESE 11 13 6 7 1027.0 1027.0 0.0
22/02:30am 8.8 5.8 2.2 63 2.8 E 7 9 4 5 1027.2 1027.2 0.0
22/02:00am 8.5 4.2 1.2 60 3.0 E 13 19 7 10 1027.3 1027.3 0.0
22/01:30am 10.4 5.2 2.3 57 3.5 ESE 19 20 10 11 1027.5 1027.5 0.0
22/01:00am 10.7 5.4 2.0 55 3.7 ESE 19 20 10 11 1027.7 1027.7 0.0
22/12:30am 11.3 5.9 1.5 51 4.2 ESE 19 20 10 11 1027.8 1027.8 0.0
22/12:00am 11.3 6.4 1.8 52 4.0 SE 17 19 9 10 1028.0 1028.0 0.0
 
Date/Time
EST
Temp
°C
App
Temp
°C
Dew
Point
Rel
Hum
%
Delta-T
°C
Wind Press
QNH
hPa
Press
MSL
hPa
Rain
since 9 am
mm
Dir
 
Spd
km/h
Gust
km/h
Spd
kts
Gust
kts
21/11:30pm 10.9 6.2 0.9 50 4.2 ESE 15 17 8 9 1028.0 1028.0 0.0
21/11:00pm 10.7 6.0 1.0 51 4.0 ESE 15 17 8 9 1028.2 1028.2 0.0
21/10:30pm 11.3 7.0 1.3 50 4.2 ESE 13 15 7 8 1028.3 1028.3 0.0
21/10:00pm 11.0 6.6 0.4 48 4.3 ESE 13 15 7 8 1028.2 1028.2 0.0
21/09:30pm 13.2 9.2 0.3 41 5.4 SE 11 15 6 8 1028.0 1028.0 0.0
21/09:00pm 15.9 11.2 0.9 36 6.5 SSE 15 19 8 10 1027.8 1027.8 0.0
21/08:30pm 15.5 11.4 0.1 35 6.6 SSE 11 17 6 9 1027.5 1027.5 0.0
21/08:00pm 16.4 12.3 0.1 33 7.0 SSE 11 11 6 6 1027.0 1027.0 0.0
21/07:30pm 16.7 12.7 0.4 33 7.1 SSE 11 13 6 7 1026.8 1026.8 0.0
21/07:00pm 14.5 10.6 -1.2 34 6.4 SE 9 11 5 6 1026.5 1026.5 0.0
21/06:30pm 16.6 12.8 -1.0 30 7.4 SE 9 9 5 5 1026.1 1026.1 0.0
21/06:00pm 19.3 15.1 -0.7 26 8.7 SE 11 15 6 8 1025.9 1025.9 0.0
21/05:30pm 20.8 16.4 0.1 25 9.3 SE 13 17 7 9 1025.7 1025.7 0.0
21/05:00pm 21.4 17.0 0.6 25 9.4 ESE 13 19 7 10 1025.6 1025.6 0.0
21/04:30pm 21.7 18.2 -1.6 21 10.2 ESE 7 19 4 10 1025.7 1025.7 0.0
21/04:00pm 21.9 17.1 -2.7 19 10.5 SE 13 20 7 11 1025.8 1025.8 0.0
21/03:30pm 22.3 17.0 -0.4 22 10.2 SE 17 24 9 13 1026.0 1026.0 0.0
21/03:00pm 22.3 18.7 0.8 24 9.8 SSW 9 22 5 12 1026.2 1026.2 0.0
21/02:30pm 21.6 16.8 0.2 24 9.7 SSW 15 20 8 11 1026.5 1026.5 0.0
21/02:00pm 21.5 17.2 0.7 25 9.4 SW 13 22 7 12 1026.8 1026.8 0.0
21/01:30pm 21.6 17.7 1.3 26 9.4 SSE 11 19 6 10 1027.1 1027.1 0.0
21/01:00pm 20.9 17.9 1.7 28 8.8 WNW 7 11 4 6 1027.6 1027.6 0.0
21/12:30pm 20.4 17.6 2.3 30 8.5 WNW 6 26 3 14 1028.0 1028.0 0.0
21/12:00pm 19.9 16.5 1.8 30 8.3 N 9 17 5 9 1028.2 1028.2 0.0
21/11:30am 19.8 17.2 3.1 33 7.9 W 6 15 3 8 1028.7 1028.8 0.0
21/11:00am 18.7 15.9 2.1 33 7.6 NE 6 13 3 7 1029.2 1029.3 0.0
21/10:30am 17.8 14.8 4.0 40 6.5 NNE 9 15 5 8 1029.3 1029.4 0.0
21/10:00am 16.5 14.1 5.2 47 5.4 ENE 7 13 4 7 1029.8 1029.9 0.0
21/09:30am 14.7 11.5 5.2 53 4.5 SE 11 15 6 8 1029.8 1029.9 0.0
21/09:00am 13.8 10.3 5.4 57 3.9 ESE 13 17 7 9 1029.8 1029.9 0.0
21/08:30am 11.5 7.6 5.2 65 2.9 ESE 15 19 8 10 1029.6 1029.7 0.0
21/08:00am 9.5 5.4 4.5 71 2.2 SE 15 19 8 10 1029.2 1029.3 0.0
21/07:30am 8.7 4.6 4.5 75 1.9 SE 15 20 8 11 1028.6 1028.7 0.0
21/07:00am 7.8 5.2 5.9 88 0.9 SE 9 13 5 7 1028.1 1028.1 0.0
21/06:30am 5.6 2.5 5.5 99 0.0 SE 11 15 6 8 1027.5 1027.5 0.0
21/06:00am 3.3 1.3 2.1 92 0.5 WSW 2 6 1 3 1027.2 1027.2 0.0
21/05:30am 3.5 1.6 2.6 94 0.4 SSE 2 7 1 4 1026.7 1026.7 0.0
21/05:00am 2.9 1.2 1.6 91 0.5 CALM 0 0 0 0 1026.4 1026.4 0.0
21/04:30am 5.5 4.3 4.6 94 0.4 CALM 0 6 0 3 1026.3 1026.3 0.0
21/04:00am 4.4 1.5 2.8 89 0.6 E 7 11 4 6 1026.2 1026.2 0.0
21/03:30am 5.2 3.0 3.5 89 0.7 E 4 9 2 5 1026.2 1026.2 0.0
21/03:00am 6.3 4.6 3.8 84 1.1 E 2 7 1 4 1026.0 1026.0 0.0
21/02:30am 8.4 5.6 5.0 79 1.5 SSE 9 15 5 8 1026.1 1026.1 0.0
21/02:00am 7.6 5.1 3.8 77 1.6 S 6 11 3 6 1026.5 1026.5 0.0
21/01:30am 7.8 6.0 3.5 74 1.9 SSE 2 9 1 5 1026.7 1026.7 0.0
21/01:00am 9.3 6.0 4.3 71 2.2 SSE 11 17 6 9 1026.9 1026.9 0.0
21/12:30am 10.2 6.1 4.6 68 2.5 SSE 15 19 8 10 1026.9 1026.9 0.0
21/12:00am 10.9 6.5 4.6 65 2.8 S 17 24 9 13 1027.0 1027.0 0.0
 
Date/Time
EST
Temp
°C
App
Temp
°C
Dew
Point
Rel
Hum
%
Delta-T
°C
Wind Press
QNH
hPa
Press
MSL
hPa
Rain
since 9 am
mm
Dir
 
Spd
km/h
Gust
km/h
Spd
kts
Gust
kts
20/11:30pm 10.9 7.2 4.4 64 2.9 S 13 19 7 10 1027.1 1027.1 0.0
20/11:00pm 11.5 6.6 4.3 61 3.2 S 19 24 10 13 1027.1 1027.1 0.0
20/10:30pm 12.2 7.1 3.9 57 3.7 S 20 28 11 15 1026.9 1026.9 0.0
20/10:00pm 12.3 7.2 3.3 54 4.0 S 19 24 10 13 1026.8 1026.8 0.0
20/09:30pm 13.3 8.2 2.8 49 4.7 S 19 24 10 13 1026.6 1026.6 0.0
20/09:00pm 13.9 8.7 2.2 45 5.1 S 19 24 10 13 1026.3 1026.3 0.0
20/08:30pm 13.9 9.4 1.9 44 5.3 S 15 22 8 12 1026.2 1026.2 0.0
20/08:00pm 13.9 9.7 1.5 43 5.4 S 13 17 7 9 1025.9 1025.9 0.0
20/07:30pm 13.8 9.4 0.5 40 5.7 S 13 15 7 8 1025.5 1025.5 0.0
20/07:00pm 14.9 10.4 0.0 36 6.3 S 13 17 7 9 1025.1 1025.1 0.0
20/06:30pm 15.9 11.7 -0.8 32 7.0 S 11 13 6 7 1024.7 1024.7 0.0
20/06:00pm 17.8 13.2 -0.9 28 8.0 S 13 20 7 11 1024.3 1024.3 0.0
20/05:30pm 19.0 13.7 -0.4 27 8.5 SSW 17 20 9 11 1023.8 1023.8 0.0
20/05:00pm 19.5 13.6 -0.5 26 8.7 SSW 20 26 11 14 1023.3 1023.4 0.0
20/04:30pm 19.9 14.9 -1.2 24 9.2 SW 15 20 8 11 1023.2 1023.3 0.0
20/04:00pm 20.2 13.9 -1.0 24 9.2 SW 22 30 12 16 1023.2 1023.3 0.0
20/03:30pm 20.3 14.5 -1.5 23 9.4 SW 19 24 10 13 1023.2 1023.3 0.0
20/03:00pm 19.7 15.1 -1.4 24 9.1 S 13 22 7 12 1023.2 1023.3 0.0
20/02:30pm 19.9 14.6 -0.7 25 9.0 SSW 17 20 9 11 1023.6 1023.6 0.0
20/02:00pm 19.4 13.7 -0.6 26 8.7 SSW 19 30 10 16 1023.7 1023.7 0.0
20/01:30pm 19.0 14.0 -1.4 25 8.7 SW 15 32 8 17 1024.1 1024.1 0.0
20/01:00pm 18.8 15.2 0.4 29 8.1 SW 9 11 5 6 1024.5 1024.5 0.0
20/12:30pm 17.9 12.3 0.1 30 7.8 SSW 19 26 10 14 1024.8 1024.8 0.0
20/12:00pm 17.2 12.1 0.8 33 7.2 SSW 17 28 9 15 1025.1 1025.1 0.0
20/11:30am 16.2 11.9 0.7 35 6.8 S 13 17 7 9 1025.2 1025.2 0.0
20/11:00am 15.7 10.3 1.1 37 6.4 SW 19 33 10 18 1025.4 1025.4 0.0
20/10:30am 15.0 9.5 1.9 41 5.8 SSW 20 28 11 15 1025.6 1025.6 0.0
20/10:00am 14.1 8.8 2.0 44 5.3 SSW 19 24 10 13 1025.8 1025.8 0.0
20/09:30am 13.5 8.2 3.0 49 4.7 SSW 20 22 11 12 1025.9 1025.9 0.0
20/09:00am 12.4 7.5 3.9 56 3.8 SSW 19 22 10 12 1025.8 1025.8 0.0
20/08:30am 10.8 6.6 3.8 62 3.1 S 15 20 8 11 1025.7 1025.7 0.0
20/08:00am 9.7 5.5 3.9 67 2.5 SSW 15 20 8 11 1025.7 1025.7 0.0
20/07:30am 6.4 3.9 3.7 83 1.2 WNW 6 9 3 5 1025.4 1025.4 0.0
20/07:00am 3.2 1.2 2.2 93 0.4 N 2 7 1 4 1025.1 1025.1 0.0
20/06:30am 1.2 -0.8 0.0 92 0.4 CALM 0 0 0 0 1024.9 1024.9 0.0
20/06:00am 1.3 -0.6 0.3 93 0.4 CALM 0 0 0 0 1024.8 1024.8 0.0
20/05:30am 0.7 -1.8 -0.7 90 0.5 WNW 2 6 1 3 1024.3 1024.3 0.0
20/05:00am 2.2 0.4 1.0 92 0.5 CALM 0 2 0 1 1023.7 1023.7 0.0
20/04:30am 2.0 0.1 0.5 90 0.6 CALM 0 0 0 0 1023.3 1023.4 0.0
20/04:00am 2.3 0.4 0.5 88 0.7 CALM 0 6 0 3 1023.2 1023.3 0.0
20/03:30am 2.4 -0.7 0.3 86 0.8 WNW 6 9 3 5 1023.1 1023.2 0.0
20/03:00am 3.3 1.2 1.5 88 0.7 WSW 2 7 1 4 1023.0 1023.1 0.0
20/02:30am 3.5 1.5 0.0 78 1.3 CALM 0 0 0 0 1023.1 1023.2 0.0
20/02:00am 3.9 2.1 0.9 81 1.2 CALM 0 0 0 0 1023.4 1023.5 0.0
20/01:30am 4.5 2.7 1.0 78 1.4 CALM 0 0 0 0 1023.7 1023.7 0.0
20/01:00am 5.1 3.0 1.6 78 1.4 WNW 2 6 1 3 1023.7 1023.7 0.0
20/12:30am 6.5 3.8 2.4 75 1.7 S 6 9 3 5 1023.7 1023.7 0.0
20/12:00am 6.4 4.7 1.7 72 1.9 CALM 0 0 0 0 1023.6 1023.6 0.0
 
Date/Time
EST
Temp
°C
App
Temp
°C
Dew
Point
Rel
Hum
%
Delta-T
°C
Wind Press
QNH
hPa
Press
MSL
hPa
Rain
since 9 am
mm
Dir
 
Spd
km/h
Gust
km/h
Spd
kts
Gust
kts
19/11:30pm 6.7 4.9 1.4 69 2.1 CALM 0 0 0 0 1023.6 1023.6 0.0
19/11:00pm 7.7 5.8 0.7 61 2.8 CALM 0 0 0 0 1023.9 1023.9 0.0
19/10:30pm 10.4 7.4 2.3 57 3.5 SSE 7 7 4 4 1024.0 1024.0 0.0
19/10:00pm 10.7 7.0 2.3 56 3.6 SSE 11 13 6 7 1024.1 1024.1 0.0
19/09:30pm 11.5 7.4 2.3 53 4.0 SSE 13 17 7 9 1024.1 1024.1 0.0
19/09:00pm 11.6 7.5 2.1 52 4.1 SSE 13 17 7 9 1024.1 1024.1 0.0
19/08:30pm 12.1 7.6 2.0 50 4.4 SSE 15 20 8 11 1024.0 1024.0 0.0
19/08:00pm 12.5 7.9 1.5 47 4.7 S 15 20 8 11 1023.9 1023.9 0.0
19/07:30pm 13.1 8.5 1.5 45 5.0 S 15 20 8 11 1023.3 1023.4 0.0
19/07:00pm 13.6 8.9 0.9 42 5.4 S 15 20 8 11 1022.9 1023.0 0.0
19/06:30pm 14.4 10.0 0.3 38 6.0 S 13 17 7 9 1022.6 1022.7 0.0
19/06:00pm 15.6 10.3 -0.6 33 6.8 SSW 17 26 9 14 1022.2 1022.3 0.0
19/05:30pm 16.6 10.7 -1.0 30 7.4 SSW 20 28 11 15 1021.9 1021.9 0.0
19/05:00pm 17.3 11.5 -1.4 28 7.9 S 19 32 10 17 1021.8 1021.8 0.0
19/04:30pm 17.7 11.6 -2.6 25 8.4 SSW 20 30 11 16 1021.6 1021.6 0.0
19/04:00pm 18.0 11.8 -2.8 24 8.5 SW 20 30 11 16 1021.4 1021.4 0.0
19/03:30pm 18.2 12.1 -2.7 24 8.7 SSW 20 30 11 16 1021.3 1021.3 0.0
19/03:00pm 17.8 11.2 -3.0 24 8.5 SSW 22 30 12 16 1021.4 1021.4 0.0
19/02:30pm 17.7 11.6 -3.7 23 8.6 SW 19 24 10 13 1021.5 1021.5 0.0
19/02:00pm 17.6 12.0 -3.2 24 8.4 SSW 17 26 9 14 1021.7 1021.7 0.0
19/01:30pm 17.0 10.9 -2.1 27 7.9 S 20 26 11 14 1022.0 1022.0 0.0
19/01:00pm 17.4 11.6 0.1 31 7.5 WSW 20 30 11 16 1022.5 1022.6 0.0
19/12:30pm 16.5 11.6 -0.7 31 7.3 SSW 15 22 8 12 1022.9 1023.0 0.0
19/12:00pm 15.9 10.1 -0.3 33 6.9 SW 20 28 11 15 1023.3 1023.4 0.0

Other Formats:

Comma delimited format used in spreadsheet applications
http://www.bom.gov.au/fwo/IDN60801/IDN60801.95704.axf

JavaScript Object Notation format (JSON) in row-major order
http://www.bom.gov.au/fwo/IDN60801/IDN60801.95704.json